Skip Navigation Links Skip Navigation Links

Current Weather

Chicago Midway, Chicago

For information only: do not use for flight planning or navigation.
Latest weather
Observation time Friday, July 10, 2020 6:53 PM CDT
Local time Friday, July 10, 2020 7:57 PM CDT
Flight conditions Visual Meteorological Conditions
Winds
Wind direction Northwest (320°)
Wind speed 17 mph
Visibility 10 mi.
Sky condition
Ceiling unlimited
Cloud layer scattered clouds 5,500 ft.
Temperature 83°F
Dewpoint 61°F
Altimeter 29.87 in.Hg
Pressure change last 3 hours-0.02 in.Hg
Pressure rising more quickly
Derived measurements
Relative humidity 48%
Heat index 83°F
Density altitude 2460 ft.
Sea-level pressure 29.84 in.Hg
Climate data
Temperature minimum, last 6 hours 83°F
Temperature maximum, last 6 hours 87°F
Remarks
Automated weather observing station with precipitation discriminator.
METAR KMDW 102353Z 32015KT 10SM SCT055 28/16 A2987 RMK AO2 SLP105 6//// T02830161 10306 20283 53007

Settings

Location code

InnerDrive.Weather 4.0.6770.0 Release CLR 4.0.30319.42000
Copyright ©2018 Inner Drive Technology. All rights reserved. Portions Copyright ©1986-2018 David Braverman.

Find weather

Site navigation


Skip Navigation Links

Place info

Page info

PayPal - The safer, easier way to pay online!

Return home.

Copyright ©2020 Inner Drive Technology. Purveyors of fine, hand-crafted computer software. Page printed 2020-07-11T00:57:03 UTC.